createdAt,value
2023-05-10T00:03:34.486Z,97654.56
2023-05-10T00:06:03.872Z,97657.06
2023-05-10T00:08:32.511Z,97649.66
2023-05-10T00:11:00.779Z,97649.31
2023-05-10T00:13:29.584Z,97649.19
2023-05-10T00:15:58.137Z,97640.53
2023-05-10T00:18:25.904Z,97644.34
2023-05-10T00:20:53.997Z,97642.50
2023-05-10T00:23:23.357Z,97641.84
2023-05-10T00:25:53.389Z,97650.63
2023-05-10T00:28:35.136Z,97649.38
2023-05-10T00:31:07.804Z,97640.16
2023-05-10T00:33:36.425Z,97637.91
2023-05-10T00:36:04.475Z,97630.47
2023-05-10T00:38:33.072Z,97630.06
2023-05-10T00:41:01.066Z,97625.91
2023-05-10T00:43:35.531Z,97636.25
2023-05-10T00:46:07.541Z,97636.06
2023-05-10T00:48:39.712Z,97636.22
2023-05-10T00:51:08.299Z,97632.63
2023-05-10T00:53:38.637Z,97628.41
2023-05-10T00:56:07.937Z,97632.16
2023-05-10T00:58:37.791Z,97631.06
2023-05-10T01:01:08.569Z,97628.41
2023-05-10T01:03:39.132Z,97626.28
2023-05-10T01:06:11.547Z,97629.63
2023-05-10T01:08:42.353Z,97616.38
2023-05-10T01:11:18.798Z,97626.09
2023-05-10T01:13:54.220Z,97620.78
2023-05-10T01:16:31.963Z,97616.59
2023-05-10T01:19:00.843Z,97618.34
2023-05-10T01:21:40.894Z,97616.59
2023-05-10T01:24:24.148Z,97615.94
2023-05-10T01:27:19.913Z,97616.75
2023-05-10T01:30:09.243Z,97610.66
2023-05-10T01:33:04.508Z,97610.66
2023-05-10T01:35:42.025Z,97610.25
2023-05-10T01:38:22.416Z,97612.47
2023-05-10T01:41:11.111Z,97605.97
2023-05-10T01:44:07.013Z,97613.25
2023-05-10T01:46:40.248Z,97607.31
2023-05-10T01:49:13.483Z,97601.59
2023-05-10T01:51:57.041Z,97602.91
2023-05-10T01:54:31.561Z,97601.22
2023-05-10T01:57:10.393Z,97609.03
2023-05-10T01:59:42.408Z,97602.44
2023-05-10T02:02:13.782Z,97609.25
2023-05-10T02:04:44.040Z,97608.88
2023-05-10T02:07:13.777Z,97601.16
2023-05-10T02:09:45.859Z,97598.16
2023-05-10T02:12:15.425Z,97604.28
2023-05-10T02:14:45.531Z,97606.84
2023-05-10T02:17:14.690Z,97604.81
2023-05-10T02:19:44.758Z,97608.25
2023-05-10T02:22:15.318Z,97606.09
2023-05-10T02:24:45.145Z,97606.38
2023-05-10T02:27:15.250Z,97601.16
2023-05-10T02:29:45.302Z,97609.97
2023-05-10T02:32:14.218Z,97606.28
2023-05-10T02:34:43.211Z,97603.38
2023-05-10T02:37:12.029Z,97603.13
2023-05-10T02:39:45.127Z,97593.97
2023-05-10T02:42:24.238Z,97598.16
2023-05-10T02:44:54.668Z,97586.28
2023-05-10T02:47:22.441Z,97592.13
2023-05-10T02:49:51.222Z,97590.03
2023-05-10T02:52:30.501Z,97588.66
2023-05-10T02:55:04.466Z,97594.31
2023-05-10T02:57:42.825Z,97587.53
2023-05-10T03:00:13.757Z,97599.38
2023-05-10T03:02:43.326Z,97594.84
2023-05-10T03:05:11.429Z,97593.88
2023-05-10T03:07:38.915Z,97595.56
2023-05-10T03:10:07.714Z,97595.75
2023-05-10T03:12:59.765Z,97590.44
2023-05-10T03:15:53.062Z,97586.53
2023-05-10T03:18:31.070Z,97581.56
2023-05-10T03:21:10.190Z,97585.63
2023-05-10T03:23:46.354Z,97580.06
2023-05-10T03:26:30.319Z,97578.03
2023-05-10T03:29:13.843Z,97576.63
2023-05-10T03:31:43.461Z,97585.28
2023-05-10T03:34:11.889Z,97592.78
2023-05-10T03:36:40.445Z,97595.59
2023-05-10T03:39:08.563Z,97594.00
2023-05-10T03:41:36.759Z,97593.63
2023-05-10T03:44:07.759Z,97600.97
2023-05-10T03:46:36.452Z,97590.00
2023-05-10T03:49:10.575Z,97596.78
2023-05-10T03:51:38.507Z,97607.91
2023-05-10T03:54:07.148Z,97603.81
2023-05-10T03:56:35.553Z,97607.06
2023-05-10T03:59:11.594Z,97608.56
2023-05-10T04:01:48.641Z,97604.59
2023-05-10T04:04:17.392Z,97610.63
2023-05-10T04:06:46.884Z,97609.59
2023-05-10T04:09:19.214Z,97599.63
2023-05-10T04:11:47.358Z,97598.97
2023-05-10T04:14:15.698Z,97606.88
2023-05-10T04:16:47.390Z,97615.56
2023-05-10T04:19:15.537Z,97597.00
2023-05-10T04:21:43.797Z,97606.44
2023-05-10T04:24:13.529Z,97596.13
2023-05-10T04:26:42.143Z,97596.97
2023-05-10T04:29:14.355Z,97592.38
2023-05-10T04:31:42.193Z,97605.81
2023-05-10T04:34:15.373Z,97604.59
2023-05-10T04:36:43.727Z,97599.44
2023-05-10T04:39:12.466Z,97593.31
2023-05-10T04:41:40.854Z,97595.28
2023-05-10T04:44:11.766Z,97600.03
2023-05-10T04:46:40.768Z,97584.81
2023-05-10T04:49:09.327Z,97581.16
2023-05-10T04:51:37.532Z,97589.28
2023-05-10T04:54:06.916Z,97593.81
2023-05-10T04:56:35.388Z,97593.34
2023-05-10T04:59:05.274Z,97589.16
2023-05-10T05:01:34.067Z,97589.41
2023-05-10T05:04:02.724Z,97589.66
2023-05-10T05:06:31.189Z,97589.19
2023-05-10T05:09:00.392Z,97587.16
2023-05-10T05:11:29.071Z,97594.75
2023-05-10T05:14:00.611Z,97597.63
2023-05-10T05:16:32.010Z,97574.84
2023-05-10T05:19:13.236Z,97594.06
2023-05-10T05:21:44.238Z,97589.19
2023-05-10T05:24:14.009Z,97579.38
2023-05-10T05:26:41.428Z,97586.16
2023-05-10T05:29:12.186Z,97595.94
2023-05-10T05:31:40.164Z,97593.22
2023-05-10T05:34:07.940Z,97583.50
2023-05-10T05:36:41.613Z,97578.41
2023-05-10T05:39:12.384Z,97584.34
2023-05-10T05:41:39.473Z,97585.66
2023-05-10T05:44:08.912Z,97582.75
2023-05-10T05:46:37.130Z,97593.16
2023-05-10T05:49:06.372Z,97596.47
2023-05-10T05:51:36.810Z,97587.25
2023-05-10T05:54:06.212Z,97591.16
2023-05-10T05:56:34.659Z,97592.78
2023-05-10T05:59:04.238Z,97582.16
2023-05-10T06:01:37.035Z,97596.00
2023-05-10T06:04:07.756Z,97598.38
2023-05-10T06:06:39.196Z,97606.13
2023-05-10T06:09:06.847Z,97606.28
2023-05-10T06:11:35.514Z,97596.16
2023-05-10T06:14:06.425Z,97602.16
2023-05-10T06:16:35.615Z,97607.25
2023-05-10T06:19:04.452Z,97610.94
2023-05-10T06:21:33.702Z,97605.91
2023-05-10T06:24:01.858Z,97595.81
2023-05-10T06:26:30.149Z,97608.84
2023-05-10T06:29:07.145Z,97603.22
2023-05-10T06:31:35.914Z,97594.03
2023-05-10T06:34:08.356Z,97600.56
2023-05-10T06:36:38.155Z,97602.84
2023-05-10T06:39:07.372Z,97601.38
2023-05-10T06:41:39.499Z,97606.94
2023-05-10T06:44:11.833Z,97599.69
2023-05-10T06:46:43.565Z,97597.19
2023-05-10T06:49:11.710Z,97608.06
2023-05-10T06:51:40.355Z,97599.56
2023-05-10T06:54:09.140Z,97594.75
2023-05-10T06:56:48.304Z,97594.16
2023-05-10T06:59:50.470Z,97607.59
2023-05-10T07:02:20.105Z,97609.22
2023-05-10T07:04:49.154Z,97592.72
2023-05-10T07:07:20.367Z,97603.38
2023-05-10T07:09:48.345Z,97593.31
2023-05-10T07:12:16.652Z,97594.94
2023-05-10T07:14:46.547Z,97588.22
2023-05-10T07:17:15.071Z,97589.38
2023-05-10T07:19:46.244Z,97586.00
2023-05-10T07:22:14.546Z,97593.53
2023-05-10T07:24:42.457Z,97589.56
2023-05-10T07:27:10.817Z,97595.19
2023-05-10T07:29:42.118Z,97601.94
2023-05-10T07:32:12.026Z,97602.78
2023-05-10T07:34:45.487Z,97595.69
2023-05-10T07:37:13.954Z,97597.19
2023-05-10T07:39:45.041Z,97598.19
2023-05-10T07:42:15.541Z,97592.59
2023-05-10T07:44:43.495Z,97580.63
2023-05-10T07:47:14.986Z,97591.09
2023-05-10T07:49:43.475Z,97601.66
2023-05-10T07:52:11.458Z,97595.03
2023-05-10T07:54:39.304Z,97596.03
2023-05-10T07:57:07.865Z,97601.09
2023-05-10T07:59:36.589Z,97601.13
2023-05-10T08:02:04.641Z,97587.34
2023-05-10T08:04:32.547Z,97595.50
2023-05-10T08:07:00.844Z,97590.69
2023-05-10T08:09:29.769Z,97595.81
2023-05-10T08:12:00.120Z,97595.38
2023-05-10T08:14:31.335Z,97591.97
2023-05-10T08:16:59.389Z,97582.75
2023-05-10T08:19:29.696Z,97587.69
2023-05-10T08:21:58.601Z,97589.47
2023-05-10T08:24:27.268Z,97598.16
2023-05-10T08:26:55.619Z,97587.88
2023-05-10T08:29:24.001Z,97594.91
2023-05-10T08:31:52.524Z,97596.59
2023-05-10T08:34:22.254Z,97592.06
2023-05-10T08:36:52.508Z,97588.97
2023-05-10T08:39:29.707Z,97588.16
2023-05-10T08:42:03.512Z,97603.59
2023-05-10T08:44:34.014Z,97596.81
2023-05-10T08:47:06.609Z,97600.22
2023-05-10T08:49:35.486Z,97592.28
2023-05-10T08:52:09.434Z,97596.19
2023-05-10T08:54:38.355Z,97604.19
2023-05-10T08:57:06.393Z,97598.16
2023-05-10T08:59:34.508Z,97593.59
2023-05-10T09:02:06.926Z,97600.09
2023-05-10T09:04:37.989Z,97597.22
2023-05-10T09:07:05.375Z,97598.84
2023-05-10T09:09:36.162Z,97596.41
2023-05-10T09:12:04.805Z,97592.88
2023-05-10T09:14:36.494Z,97590.59
2023-05-10T09:17:05.954Z,97602.28
2023-05-10T09:19:34.018Z,97595.34
2023-05-10T09:22:03.560Z,97594.84
2023-05-10T09:24:32.597Z,97604.22
2023-05-10T09:27:01.859Z,97597.91
2023-05-10T09:29:41.723Z,97584.88
2023-05-10T09:32:09.860Z,97597.56
2023-05-10T09:34:41.283Z,97590.44
2023-05-10T09:37:09.977Z,97586.53
2023-05-10T09:39:43.862Z,97574.66
2023-05-10T09:42:12.607Z,97591.16
2023-05-10T09:44:44.445Z,97588.38
2023-05-10T09:47:20.134Z,97587.38
2023-05-10T09:49:52.783Z,97601.88
2023-05-10T09:52:20.217Z,97596.09
2023-05-10T09:54:55.053Z,97593.78
2023-05-10T09:57:23.810Z,97589.69
2023-05-10T09:59:52.328Z,97597.03
2023-05-10T10:02:21.650Z,97595.69
2023-05-10T10:04:58.057Z,97596.69
2023-05-10T10:07:28.424Z,97604.59
2023-05-10T10:09:57.657Z,97604.91
2023-05-10T10:12:29.877Z,97600.09
2023-05-10T10:14:58.848Z,97596.03
2023-05-10T10:17:29.864Z,97592.59
2023-05-10T10:20:00.456Z,97595.66
2023-05-10T10:22:29.058Z,97586.47
2023-05-10T10:24:57.953Z,97593.00
2023-05-10T10:28:14.494Z,97600.22
2023-05-10T10:30:52.872Z,97594.38
2023-05-10T10:33:46.265Z,97593.66
2023-05-10T10:36:56.466Z,97590.75
2023-05-10T10:39:28.418Z,97588.13
2023-05-10T10:41:57.874Z,97581.13
2023-05-10T10:44:40.251Z,97583.22
2023-05-10T10:47:19.582Z,97582.91
2023-05-10T10:49:51.256Z,97584.72
2023-05-10T10:52:21.632Z,97582.47
2023-05-10T10:54:52.407Z,97582.59
2023-05-10T10:57:22.734Z,97576.81
2023-05-10T10:59:50.143Z,97571.63
2023-05-10T11:02:47.369Z,97567.13
2023-05-10T11:05:36.271Z,97574.69
2023-05-10T11:08:13.641Z,97572.09
2023-05-10T11:10:41.866Z,97561.19
2023-05-10T11:13:11.158Z,97561.78
2023-05-10T11:15:51.693Z,97574.09
2023-05-10T11:18:25.710Z,97566.09
2023-05-10T11:20:57.470Z,97568.66
2023-05-10T11:23:32.940Z,97564.34
2023-05-10T11:26:04.629Z,97566.28
2023-05-10T11:28:31.956Z,97568.28
2023-05-10T11:30:59.133Z,97561.44
2023-05-10T11:33:26.116Z,97551.78
2023-05-10T11:35:54.716Z,97562.75
2023-05-10T11:38:23.452Z,97564.03
2023-05-10T11:40:55.336Z,97566.41
2023-05-10T11:43:29.411Z,97563.56
2023-05-10T11:45:56.525Z,97560.03
2023-05-10T11:48:25.034Z,97570.34
2023-05-10T11:50:52.166Z,97568.75
2023-05-10T11:53:21.468Z,97571.75
2023-05-10T11:55:50.013Z,97572.91
2023-05-10T11:58:20.270Z,97568.19
2023-05-10T12:00:47.815Z,97564.19
2023-05-10T12:03:14.772Z,97581.19
2023-05-10T12:05:43.259Z,97578.75
2023-05-10T12:08:17.524Z,97582.38
2023-05-10T12:10:44.516Z,97561.59
2023-05-10T12:13:16.377Z,97573.75
2023-05-10T12:15:44.749Z,97578.72
2023-05-10T12:18:12.843Z,97581.13
2023-05-10T12:20:41.288Z,97585.09
2023-05-10T12:23:11.053Z,97578.13
2023-05-10T12:25:39.250Z,97590.00
2023-05-10T12:28:08.417Z,97588.75
2023-05-10T12:30:36.998Z,97584.75
2023-05-10T12:33:09.926Z,97592.28
2023-05-10T12:35:47.814Z,97587.19
2023-05-10T12:38:30.466Z,97585.66
2023-05-10T12:41:06.101Z,97588.50
2023-05-10T12:43:34.120Z,97587.94
2023-05-10T12:46:12.404Z,97590.38
2023-05-10T12:48:41.112Z,97589.75
2023-05-10T12:51:14.457Z,97598.56
2023-05-10T12:53:44.604Z,97589.91
2023-05-10T12:56:12.745Z,97595.94
2023-05-10T12:58:39.671Z,97584.16
2023-05-10T13:01:07.086Z,97593.03
2023-05-10T13:03:34.351Z,97594.94
2023-05-10T13:06:04.333Z,97581.59
2023-05-10T13:08:34.652Z,97583.41
2023-05-10T13:11:03.321Z,97586.47
2023-05-10T13:13:30.488Z,97584.25
2023-05-10T13:15:58.255Z,97584.75
2023-05-10T13:18:28.713Z,97585.91
2023-05-10T13:20:57.782Z,97585.34
2023-05-10T13:23:25.387Z,97585.78
2023-05-10T13:25:52.234Z,97590.06
2023-05-10T13:28:19.452Z,97588.00
2023-05-10T13:30:46.332Z,97578.66
2023-05-10T13:33:13.341Z,97580.25
2023-05-10T13:35:40.786Z,97578.78
2023-05-10T13:38:09.358Z,97577.50
2023-05-10T13:40:37.254Z,97576.44
2023-05-10T13:43:06.325Z,97580.22
2023-05-10T13:45:34.133Z,97577.22
2023-05-10T13:48:01.177Z,97576.84
2023-05-10T13:50:28.268Z,97583.66
2023-05-10T13:52:55.698Z,97583.09
2023-05-10T13:55:23.364Z,97578.69
2023-05-10T13:57:52.974Z,97577.22
2023-05-10T14:00:20.203Z,97576.28
2023-05-10T14:02:47.064Z,97580.84
2023-05-10T14:05:14.158Z,97572.47
2023-05-10T14:07:42.265Z,97575.56
2023-05-10T14:10:09.552Z,97573.22
2023-05-10T14:12:36.341Z,97570.53
2023-05-10T14:15:04.160Z,97573.34
2023-05-10T14:17:31.425Z,97571.94
2023-05-10T14:19:58.612Z,97581.81
2023-05-10T14:22:25.529Z,97575.63
2023-05-10T14:24:52.433Z,97579.78
2023-05-10T14:27:19.618Z,97566.88
2023-05-10T14:29:46.722Z,97558.00
2023-05-10T14:32:13.810Z,97571.94
2023-05-10T14:34:40.757Z,97569.03
2023-05-10T14:37:07.704Z,97567.78
2023-05-10T14:39:35.247Z,97569.84
2023-05-10T14:42:03.703Z,97569.66
2023-05-10T14:44:33.655Z,97572.56
2023-05-10T14:47:01.448Z,97572.81
2023-05-10T14:49:30.775Z,97575.28
2023-05-10T14:51:59.985Z,97567.59
2023-05-10T14:54:29.720Z,97570.44
2023-05-10T14:56:57.929Z,97575.97
2023-05-10T14:59:24.947Z,97570.25
2023-05-10T15:01:52.680Z,97579.00
2023-05-10T15:04:19.996Z,97581.81
2023-05-10T15:06:47.334Z,97586.44
2023-05-10T15:09:14.169Z,97590.44
2023-05-10T15:11:41.149Z,97583.53
2023-05-10T15:14:08.311Z,97590.00
2023-05-10T15:16:36.254Z,97583.09
2023-05-10T15:19:05.821Z,97593.63
2023-05-10T15:21:38.700Z,97591.41
2023-05-10T15:24:07.268Z,97595.28
2023-05-10T15:26:34.702Z,97598.75
2023-05-10T15:29:02.344Z,97611.09
2023-05-10T15:31:29.700Z,97593.09
2023-05-10T15:34:02.755Z,97600.16
2023-05-10T15:36:29.831Z,97602.88
2023-05-10T15:38:57.095Z,97592.06
2023-05-10T15:41:24.752Z,97598.47
2023-05-10T15:43:51.729Z,97597.25
2023-05-10T15:46:18.635Z,97597.06
2023-05-10T15:48:45.479Z,97598.53
2023-05-10T15:51:12.760Z,97605.16
2023-05-10T15:53:46.519Z,97598.13
2023-05-10T15:56:20.170Z,97600.84
2023-05-10T15:58:47.278Z,97610.94
2023-05-10T16:01:15.200Z,97599.16
2023-05-10T16:03:42.094Z,97597.03
2023-05-10T16:06:10.127Z,97601.84
2023-05-10T16:08:37.580Z,97598.53
2023-05-10T16:11:04.514Z,97599.16
2023-05-10T16:13:31.405Z,97600.59
2023-05-10T16:15:58.571Z,97611.41
2023-05-10T16:18:26.020Z,97598.31
2023-05-10T16:20:54.425Z,97602.03
2023-05-10T16:23:22.116Z,97607.63
2023-05-10T16:25:49.383Z,97612.44
2023-05-10T16:28:16.351Z,97609.34
2023-05-10T16:30:43.858Z,97602.25
2023-05-10T16:33:11.079Z,97615.31
2023-05-10T16:35:38.962Z,97619.94
2023-05-10T16:38:06.150Z,97620.00
2023-05-10T16:40:33.664Z,97628.63
2023-05-10T16:43:02.563Z,97627.38
2023-05-10T16:45:32.417Z,97622.69
2023-05-10T16:47:59.496Z,97630.59
2023-05-10T16:50:26.342Z,97622.72
2023-05-10T16:52:53.251Z,97630.81
2023-05-10T16:55:20.677Z,97627.22
2023-05-10T16:57:48.286Z,97634.16
2023-05-10T17:00:16.480Z,97632.69
2023-05-10T17:02:44.176Z,97638.63
2023-05-10T17:05:11.344Z,97646.56
2023-05-10T17:07:38.684Z,97638.78
2023-05-10T17:10:06.310Z,97647.72
2023-05-10T17:12:33.881Z,97649.78
2023-05-10T17:15:00.724Z,97645.84
2023-05-10T17:17:27.853Z,97653.41
2023-05-10T17:19:55.231Z,97656.16
2023-05-10T17:22:22.243Z,97662.53
2023-05-10T17:24:49.519Z,97659.94
2023-05-10T17:27:16.624Z,97658.78
2023-05-10T17:29:43.898Z,97666.63
2023-05-10T17:32:11.166Z,97665.84
2023-05-10T17:34:39.488Z,97670.31
2023-05-10T17:37:09.607Z,97678.13
2023-05-10T17:39:38.677Z,97670.13
2023-05-10T17:42:07.643Z,97677.00
2023-05-10T17:44:34.677Z,97675.00
2023-05-10T17:47:01.721Z,97682.81
2023-05-10T17:49:29.101Z,97682.13
2023-05-10T17:51:56.173Z,97688.97
2023-05-10T17:54:23.692Z,97682.81
2023-05-10T17:56:50.672Z,97684.16
2023-05-10T17:59:17.987Z,97695.94
2023-05-10T18:01:45.024Z,97694.22
2023-05-10T18:04:12.236Z,97695.97
2023-05-10T18:06:39.514Z,97700.22
2023-05-10T18:09:11.229Z,97704.28
2023-05-10T18:11:40.599Z,97705.41
2023-05-10T18:14:07.833Z,97716.31
2023-05-10T18:16:35.120Z,97712.19
2023-05-10T18:19:02.605Z,97718.72
2023-05-10T18:21:30.372Z,97716.81
2023-05-10T18:23:58.451Z,97730.44
2023-05-10T18:26:26.479Z,97723.97
2023-05-10T18:28:53.777Z,97738.44
2023-05-10T18:31:21.107Z,97742.63
2023-05-10T18:33:48.538Z,97737.44
2023-05-10T18:36:17.659Z,97736.75
2023-05-10T18:38:45.859Z,97736.03
2023-05-10T18:41:14.692Z,97744.56
2023-05-10T18:43:43.098Z,97750.84
2023-05-10T18:46:11.160Z,97735.53
2023-05-10T18:48:39.030Z,97739.03
2023-05-10T18:51:07.166Z,97762.19
2023-05-10T18:53:34.302Z,97766.16
2023-05-10T18:56:01.681Z,97757.41
2023-05-10T18:58:30.014Z,97769.63
2023-05-10T19:00:58.649Z,97775.63
2023-05-10T19:03:25.699Z,97772.75
2023-05-10T19:05:52.539Z,97766.88
2023-05-10T19:08:19.586Z,97780.50
2023-05-10T19:10:46.718Z,97778.00
2023-05-10T19:13:15.086Z,97785.81
2023-05-10T19:15:42.152Z,97787.69
2023-05-10T19:18:09.902Z,97788.69
2023-05-10T19:20:41.714Z,97781.91
2023-05-10T19:23:10.465Z,97792.09
2023-05-10T19:25:39.932Z,97796.16
2023-05-10T19:28:07.208Z,97796.25
2023-05-10T19:30:35.222Z,97802.28
2023-05-10T19:33:05.445Z,97803.28
2023-05-10T19:35:32.752Z,97803.13
2023-05-10T19:38:00.014Z,97802.44
2023-05-10T19:40:27.838Z,97799.22
2023-05-10T19:42:57.537Z,97795.91
2023-05-10T19:45:24.842Z,97793.56
2023-05-10T19:47:52.195Z,97802.06
2023-05-10T19:50:19.684Z,97802.91
2023-05-10T19:52:46.849Z,97796.25
2023-05-10T19:55:25.351Z,97800.19
2023-05-10T19:57:53.367Z,97788.63
2023-05-10T20:00:21.149Z,97804.00
2023-05-10T20:02:49.573Z,97804.28
2023-05-10T20:05:17.034Z,97802.09
2023-05-10T20:07:44.627Z,97806.59
2023-05-10T20:10:12.039Z,97807.75
2023-05-10T20:12:39.479Z,97804.28
2023-05-10T20:15:08.319Z,97802.75
2023-05-10T20:17:36.090Z,97799.53
2023-05-10T20:20:04.084Z,97810.19
2023-05-10T20:22:31.008Z,97802.75
2023-05-10T20:24:59.703Z,97805.25
2023-05-10T20:27:30.694Z,97803.41
2023-05-10T20:29:59.915Z,97805.50
2023-05-10T20:32:28.498Z,97804.97
2023-05-10T20:34:55.757Z,97802.78
2023-05-10T20:37:23.631Z,97805.59
2023-05-10T20:39:50.664Z,97798.66
2023-05-10T20:42:18.641Z,97789.94
2023-05-10T20:44:47.872Z,97795.38
2023-05-10T20:47:16.098Z,97794.66
2023-05-10T20:49:43.791Z,97792.69
2023-05-10T20:52:11.063Z,97793.00
2023-05-10T20:54:39.672Z,97790.06
2023-05-10T20:57:06.975Z,97789.34
2023-05-10T20:59:34.141Z,97789.47
2023-05-10T21:02:01.367Z,97788.38
2023-05-10T21:04:29.798Z,97792.69
2023-05-10T21:06:59.802Z,97789.47
2023-05-10T21:09:27.337Z,97792.69
2023-05-10T21:11:54.641Z,97789.66
2023-05-10T21:14:22.195Z,97777.09
2023-05-10T21:16:51.506Z,97788.41
2023-05-10T21:19:19.826Z,97786.25
2023-05-10T21:21:47.585Z,97791.22
2023-05-10T21:24:15.550Z,97786.97
2023-05-10T21:26:43.333Z,97794.84
2023-05-10T21:29:10.532Z,97795.56
2023-05-10T21:31:37.990Z,97785.53
2023-05-10T21:34:05.112Z,97791.66
2023-05-10T21:36:32.696Z,97788.25
2023-05-10T21:38:59.956Z,97784.66
2023-05-10T21:41:26.926Z,97784.19
2023-05-10T21:43:53.975Z,97784.47
2023-05-10T21:46:21.134Z,97787.72
2023-05-10T21:48:48.139Z,97786.97
2023-05-10T21:51:15.206Z,97787.47
2023-05-10T21:53:42.164Z,97777.56
2023-05-10T21:56:09.552Z,97777.72
2023-05-10T21:58:36.629Z,97777.88
2023-05-10T22:01:03.921Z,97778.56
2023-05-10T22:03:31.150Z,97768.31
2023-05-10T22:05:58.836Z,97781.72
2023-05-10T22:08:26.174Z,97784.34
2023-05-10T22:10:53.257Z,97772.31
2023-05-10T22:13:20.484Z,97776.03
2023-05-10T22:15:47.372Z,97782.25
2023-05-10T22:18:14.329Z,97789.47
2023-05-10T22:20:41.247Z,97778.91
2023-05-10T22:23:08.668Z,97778.19
2023-05-10T22:25:35.717Z,97777.06
2023-05-10T22:28:02.810Z,97782.53
2023-05-10T22:30:31.510Z,97784.84
2023-05-10T22:33:00.205Z,97780.41
2023-05-10T22:35:27.378Z,97776.41
2023-05-10T22:37:54.426Z,97783.09
2023-05-10T22:40:21.656Z,97785.88
2023-05-10T22:42:48.508Z,97781.88
2023-05-10T22:45:15.636Z,97779.19
2023-05-10T22:47:43.082Z,97777.91
2023-05-10T22:50:12.516Z,97775.69
2023-05-10T22:52:40.298Z,97774.09
2023-05-10T22:55:07.871Z,97750.09
2023-05-10T22:57:35.810Z,97778.91
2023-05-10T23:00:05.005Z,97774.53
2023-05-10T23:02:32.331Z,97769.63
2023-05-10T23:04:59.412Z,97775.56
2023-05-10T23:07:26.746Z,97792.88
2023-05-10T23:09:53.719Z,97790.19
2023-05-10T23:12:20.545Z,97788.25
2023-05-10T23:14:47.669Z,97787.59
2023-05-10T23:17:15.023Z,97783.09
2023-05-10T23:19:42.148Z,97781.53
2023-05-10T23:22:10.176Z,97784.16
2023-05-10T23:24:37.377Z,97789.91
2023-05-10T23:27:05.118Z,97780.81
2023-05-10T23:29:32.801Z,97777.50
2023-05-10T23:32:00.133Z,97782.19
2023-05-10T23:34:27.258Z,97782.53
2023-05-10T23:36:54.426Z,97777.50
2023-05-10T23:39:21.395Z,97778.47
2023-05-10T23:41:48.226Z,97775.13
2023-05-10T23:44:15.708Z,97777.13
2023-05-10T23:46:42.680Z,97769.81
2023-05-10T23:49:09.890Z,97782.56
2023-05-10T23:51:37.156Z,97783.13
2023-05-10T23:54:04.335Z,97763.72
2023-05-10T23:56:31.538Z,97759.25
2023-05-10T23:58:58.725Z,97745.69
